Time;durP1;ratioP1;P1;durP2;ratioP2;P2;SDS_P1;SDS_P2;PMS_P1;PMS_P2;Temp;Humidity;BMP_temperature;BMP_pressure;BME280_temperature;BME280_humidity;BME280_pressure;Samples;Min_cycle;Max_cycle;Signal;HPM_P1;HPM_P2
2022/11/12 00:01:01;;;;;;;15.30;13.80;;;7.30;99.90;;;;;;5109033;27;20503;-81
2022/11/12 00:03:27;;;;;;;14.88;13.27;;;7.20;99.90;;;;;;5113237;27;20039;-79
2022/11/12 00:05:53;;;;;;;16.90;15.15;;;7.20;99.90;;;;;;5135076;27;20251;-79
2022/11/12 00:08:19;;;;;;;19.75;17.05;;;7.20;99.90;;;;;;5094361;28;20051;-79
2022/11/12 00:10:45;;;;;;;17.42;15.73;;;7.20;99.90;;;;;;5086348;28;20867;-80
2022/11/12 00:13:11;;;;;;;17.73;15.85;;;7.20;99.90;;;;;;5088326;27;20074;-81
2022/11/12 00:15:37;;;;;;;15.90;14.38;;;7.10;99.90;;;;;;5103044;27;20043;-80
2022/11/12 00:18:03;;;;;;;17.15;14.23;;;7.10;99.90;;;;;;5107852;27;20081;-80
2022/11/12 00:20:32;;;;;;;19.15;15.77;;;7.10;99.90;;;;;;5116325;27;20130;-80
2022/11/12 00:22:58;;;;;;;14.38;12.95;;;7.10;99.90;;;;;;5095200;28;20050;-80
2022/11/12 00:25:27;;;;;;;16.33;14.57;;;7.00;99.90;;;;;;5084899;28;20039;-80
2022/11/12 00:27:52;;;;;;;15.10;13.60;;;7.00;99.90;;;;;;5104762;27;20055;-81
2022/11/12 00:30:18;;;;;;;14.77;13.18;;;6.90;99.90;;;;;;5120180;27;20039;-81
2022/11/12 00:32:44;;;;;;;14.57;13.18;;;6.80;99.90;;;;;;5103741;27;20065;-80
2022/11/12 00:35:11;;;;;;;15.43;13.85;;;6.80;99.90;;;;;;5109419;27;20196;-81
2022/11/12 00:37:36;;;;;;;15.27;13.75;;;6.70;99.90;;;;;;5080427;27;20134;-80
2022/11/12 00:40:03;;;;;;;12.65;11.45;;;6.60;99.90;;;;;;5094023;27;20122;-81
2022/11/12 00:42:29;;;;;;;11.68;10.43;;;6.60;99.90;;;;;;5143905;27;20342;-81
2022/11/12 00:44:55;;;;;;;12.38;11.18;;;6.50;99.90;;;;;;5109666;27;20623;-81
2022/11/12 00:47:20;;;;;;;15.48;13.88;;;6.50;99.90;;;;;;5094673;27;20157;-81
2022/11/12 00:49:46;;;;;;;17.85;15.95;;;6.50;99.90;;;;;;5095605;27;20119;-80
2022/11/12 00:52:12;;;;;;;15.02;13.55;;;6.50;99.90;;;;;;5143582;27;20088;-80
2022/11/12 00:54:38;;;;;;;16.58;14.73;;;6.50;99.90;;;;;;5090252;28;20094;-81
2022/11/12 00:57:03;;;;;;;16.05;14.43;;;6.40;99.90;;;;;;5086203;27;20035;-80
2022/11/12 00:59:29;;;;;;;17.48;14.98;;;6.40;99.90;;;;;;5080225;28;20075;-80
2022/11/12 01:01:55;;;;;;;15.10;13.60;;;6.30;99.90;;;;;;5103551;27;20051;-81
2022/11/12 01:04:21;;;;;;;13.88;12.57;;;6.30;99.90;;;;;;5059206;27;20039;-74
2022/11/12 01:06:46;;;;;;;14.10;12.70;;;6.20;99.90;;;;;;5081623;27;20047;-74
2022/11/12 01:09:12;;;;;;;15.00;13.50;;;6.20;99.90;;;;;;5075696;28;20587;-73
2022/11/12 01:11:40;;;;;;;16.52;14.82;;;6.20;99.90;;;;;;5097211;27;20389;-74
2022/11/12 01:14:07;;;;;;;16.27;14.68;;;6.20;99.90;;;;;;5116589;27;20054;-73
2022/11/12 01:16:38;;;;;;;16.38;14.68;;;6.20;99.90;;;;;;5103654;27;20051;-74
2022/11/12 01:19:09;;;;;;;20.95;17.35;;;6.20;99.90;;;;;;5103970;27;20043;-74
2022/11/12 01:21:41;;;;;;;17.30;15.45;;;6.20;99.90;;;;;;5125806;27;20054;-73
2022/11/12 01:24:08;;;;;;;18.25;16.45;;;6.20;99.90;;;;;;5129566;27;20482;-80
2022/11/12 01:26:34;;;;;;;19.98;17.88;;;6.10;99.90;;;;;;5103112;27;20141;-80
2022/11/12 01:29:00;;;;;;;20.80;18.60;;;6.10;99.90;;;;;;5101553;27;20130;-80
2022/11/12 01:31:32;;;;;;;20.00;18.00;;;6.20;99.90;;;;;;5120370;27;20477;-80
2022/11/12 01:34:01;;;;;;;18.95;16.95;;;6.10;99.90;;;;;;5114691;27;20072;-82
2022/11/12 01:36:29;;;;;;;17.33;15.63;;;6.10;99.90;;;;;;5146366;27;20062;-80
2022/11/12 01:38:55;;;;;;;18.95;16.77;;;6.10;99.90;;;;;;5117362;27;20512;-80
2022/11/12 01:41:24;;;;;;;19.10;17.20;;;6.10;99.90;;;;;;5104278;27;20043;-80
2022/11/12 01:44:16;;;;;;;20.83;18.80;;;6.00;99.90;;;;;;5117838;27;20622;-80
2022/11/12 01:47:04;;;;;;;20.70;18.63;;;6.10;99.90;;;;;;5120375;27;20050;-80
2022/11/12 01:49:55;;;;;;;21.85;19.48;;;6.00;99.90;;;;;;5115694;27;21683;-80
2022/11/12 01:52:38;;;;;;;19.67;17.67;;;6.00;99.90;;;;;;5120176;27;20078;-80
2022/11/12 01:55:13;;;;;;;19.25;17.25;;;6.00;99.90;;;;;;5125982;27;20134;-80
2022/11/12 01:57:46;;;;;;;17.50;15.85;;;6.00;99.90;;;;;;5116888;27;20055;-80
2022/11/12 02:00:12;;;;;;;17.42;15.02;;;5.90;99.90;;;;;;5087714;27;20066;-80
2022/11/12 02:02:39;;;;;;;21.55;19.33;;;5.90;99.90;;;;;;5092458;27;20430;-80
2022/11/12 02:05:10;;;;;;;23.40;19.95;;;5.80;99.90;;;;;;5086529;28;20383;-80
2022/11/12 02:07:39;;;;;;;28.10;22.35;;;5.80;99.90;;;;;;5097489;27;20641;-80
2022/11/12 02:10:08;;;;;;;19.23;17.30;;;5.80;99.90;;;;;;5097695;28;20549;-79
2022/11/12 02:15:19;;;;;;;18.17;15.45;;;5.70;99.90;;;;;;5100965;27;20062;-80
2022/11/12 02:17:45;;;;;;;20.50;18.58;;;5.70;99.90;;;;;;5125387;27;20047;-81
2022/11/12 02:20:12;;;;;;;17.80;16.08;;;5.70;99.90;;;;;;5091448;27;20055;-80
2022/11/12 02:22:38;;;;;;;18.42;16.60;;;5.60;99.90;;;;;;5143885;27;20146;-80
2022/11/12 02:25:05;;;;;;;17.55;15.85;;;5.60;99.90;;;;;;5050138;27;20054;-81
2022/11/12 02:27:31;;;;;;;16.20;14.57;;;5.50;99.90;;;;;;5088212;27;20090;-80
2022/11/12 02:30:00;;;;;;;16.13;14.35;;;5.50;99.90;;;;;;5108217;27;20075;-81
2022/11/12 02:32:29;;;;;;;16.33;14.57;;;5.50;99.90;;;;;;5098151;27;20139;-81
2022/11/12 02:34:55;;;;;;;14.85;13.45;;;5.40;99.90;;;;;;5069592;28;20156;-80
2022/11/12 02:37:21;;;;;;;15.70;14.20;;;5.40;99.90;;;;;;5057883;28;20055;-81
2022/11/12 02:39:46;;;;;;;14.70;13.23;;;5.30;99.90;;;;;;5113846;27;20436;-81
2022/11/12 02:42:12;;;;;;;14.88;13.30;;;5.30;99.90;;;;;;5107783;27;20130;-81
2022/11/12 02:44:38;;;;;;;17.92;16.15;;;5.30;99.90;;;;;;5110530;27;20039;-81
2022/11/12 02:47:04;;;;;;;18.08;16.35;;;5.30;99.90;;;;;;5119576;27;20039;-81
2022/11/12 02:49:29;;;;;;;19.02;17.20;;;5.30;99.90;;;;;;5084491;27;20054;-81
2022/11/12 02:51:55;;;;;;;15.95;14.35;;;5.20;99.90;;;;;;5120232;27;20094;-81
2022/11/12 02:54:21;;;;;;;16.02;14.50;;;5.30;99.90;;;;;;5097565;27;20043;-81
2022/11/12 02:56:46;;;;;;;16.92;15.25;;;5.10;99.90;;;;;;5084361;27;20050;-80
2022/11/12 02:59:12;;;;;;;18.42;16.63;;;5.10;99.90;;;;;;5077323;27;20054;-81
2022/11/12 03:01:38;;;;;;;20.58;18.45;;;5.00;99.90;;;;;;5107219;27;20067;-81
2022/11/12 03:04:04;;;;;;;18.63;16.67;;;5.10;99.90;;;;;;5087903;27;20347;-81
2022/11/12 03:06:30;;;;;;;20.13;18.10;;;5.10;99.90;;;;;;5082868;27;20458;-80
2022/11/12 03:08:55;;;;;;;19.58;17.67;;;5.10;99.90;;;;;;5091511;27;20171;-80
2022/11/12 03:11:21;;;;;;;21.08;18.98;;;5.20;99.90;;;;;;5112801;27;20401;-80
2022/11/12 03:13:47;;;;;;;18.95;17.02;;;5.20;99.90;;;;;;5082656;27;20054;-80
2022/11/12 03:16:13;;;;;;;19.73;17.83;;;5.20;99.90;;;;;;5101523;27;20050;-80
2022/11/12 03:18:39;;;;;;;25.20;21.02;;;5.10;99.90;;;;;;5089481;27;20058;-80
2022/11/12 03:21:05;;;;;;;27.17;21.35;;;5.20;99.90;;;;;;5106539;27;20047;-81
2022/11/12 03:23:31;;;;;;;22.42;20.00;;;5.20;99.90;;;;;;5117944;27;20035;-81
2022/11/12 03:25:56;;;;;;;23.58;21.27;;;5.20;99.90;;;;;;5059024;27;20028;-80
2022/11/12 03:28:22;;;;;;;20.20;18.35;;;5.10;99.90;;;;;;5118182;27;20050;-79
2022/11/12 03:30:49;;;;;;;21.17;18.98;;;5.10;99.90;;;;;;5086231;27;20039;-79
2022/11/12 03:33:16;;;;;;;20.63;18.73;;;5.10;99.90;;;;;;5120054;27;20096;-80
2022/11/12 03:35:42;;;;;;;20.30;18.40;;;5.10;99.90;;;;;;5111562;27;20070;-79
2022/11/12 03:38:07;;;;;;;20.88;18.73;;;5.00;99.90;;;;;;5120059;27;20042;-80
2022/11/12 03:40:34;;;;;;;19.83;17.83;;;5.00;99.90;;;;;;5116753;27;20055;-80
2022/11/12 03:42:59;;;;;;;24.20;21.80;;;5.00;99.90;;;;;;5100750;27;20490;-80
2022/11/12 03:45:26;;;;;;;22.33;19.40;;;5.20;99.90;;;;;;5113347;27;20050;-79
2022/11/12 03:47:54;;;;;;;23.15;20.92;;;5.10;99.90;;;;;;5120978;27;20056;-79
2022/11/12 03:50:23;;;;;;;20.67;18.65;;;5.10;99.90;;;;;;5122115;27;20047;-80
2022/11/12 03:52:55;;;;;;;28.25;25.30;;;5.10;99.90;;;;;;5120253;27;21380;-79
2022/11/12 03:55:23;;;;;;;47.80;38.78;;;5.10;99.90;;;;;;5104943;27;20068;-79
2022/11/12 03:57:50;;;;;;;25.85;23.25;;;5.10;99.90;;;;;;5120196;27;20887;-79
2022/11/12 04:00:16;;;;;;;35.33;24.98;;;5.00;99.90;;;;;;5123878;27;20073;-79
2022/11/12 04:02:41;;;;;;;24.73;21.98;;;5.00;99.90;;;;;;5109245;27;20051;-79
2022/11/12 04:10:45;;;;;;;25.45;22.92;;;5.00;99.90;;;;;;5124985;27;20055;-79
2022/11/12 04:13:26;;;;;;;27.00;23.83;;;4.90;99.90;;;;;;5125688;27;20126;-80
2022/11/12 04:21:55;;;;;;;27.50;24.63;;;4.80;99.90;;;;;;5119779;27;20057;-80
2022/11/12 04:27:06;;;;;;;23.60;21.20;;;4.80;99.90;;;;;;5120930;27;20042;-80
2022/11/12 04:32:16;;;;;;;25.65;23.08;;;4.90;99.90;;;;;;5151721;27;20044;-80
2022/11/12 04:34:42;;;;;;;22.48;20.38;;;4.80;99.90;;;;;;5119598;27;20050;-80
2022/11/12 04:37:11;;;;;;;26.75;23.95;;;4.80;99.90;;;;;;5098119;27;20050;-80
2022/11/12 04:39:36;;;;;;;29.48;26.35;;;4.70;99.90;;;;;;5069570;27;20043;-80
2022/11/12 04:45:03;;;;;;;25.35;22.65;;;4.70;99.90;;;;;;5155070;27;20051;-81
2022/11/12 04:47:40;;;;;;;21.38;19.17;;;4.70;99.90;;;;;;5076941;27;20051;-80
2022/11/12 04:50:17;;;;;;;18.70;16.75;;;4.60;99.90;;;;;;5117420;27;20072;-81
2022/11/12 04:52:43;;;;;;;26.05;23.25;;;4.60;99.90;;;;;;5121584;27;20040;-81
2022/11/12 04:55:10;;;;;;;25.42;22.98;;;4.60;99.90;;;;;;5140130;27;20563;-81
2022/11/12 04:57:37;;;;;;;24.42;22.15;;;4.60;99.90;;;;;;5109421;27;20582;-80
2022/11/12 05:00:04;;;;;;;30.52;27.25;;;4.70;99.90;;;;;;5138175;27;20058;-80
2022/11/12 05:02:29;;;;;;;34.95;30.02;;;4.70;99.90;;;;;;5115324;27;20065;-80
2022/11/12 05:04:55;;;;;;;83.95;40.50;;;4.70;99.90;;;;;;5097454;27;20040;-80
2022/11/12 05:07:21;;;;;;;48.40;36.47;;;4.70;99.90;;;;;;5111011;27;20071;-80
2022/11/12 05:09:47;;;;;;;32.08;28.60;;;4.70;99.90;;;;;;5105164;27;20047;-80
2022/11/12 05:12:13;;;;;;;26.00;23.40;;;4.70;99.90;;;;;;5129499;27;20561;-80
2022/11/12 05:14:39;;;;;;;28.10;25.38;;;4.70;99.90;;;;;;5115427;27;20039;-81
2022/11/12 05:17:04;;;;;;;28.63;25.70;;;4.70;99.90;;;;;;5119822;27;20375;-81
2022/11/12 05:19:30;;;;;;;57.53;45.22;;;4.70;99.90;;;;;;5141157;27;20103;-80
2022/11/12 05:22:05;;;;;;;31.05;27.88;;;4.70;99.90;;;;;;5089671;27;20345;-81
2022/11/12 05:24:42;;;;;;;27.55;24.75;;;4.70;99.90;;;;;;5117137;27;20508;-80
2022/11/12 05:27:14;;;;;;;45.17;36.00;;;4.80;99.90;;;;;;5101285;28;20478;-81
2022/11/12 05:29:40;;;;;;;40.25;35.40;;;4.80;99.90;;;;;;5107446;27;20047;-81
2022/11/12 05:32:10;;;;;;;35.40;31.67;;;4.90;99.90;;;;;;5088228;28;20552;-80
2022/11/12 05:34:36;;;;;;;;;;;4.90;99.90;;;;;;5106895;27;20377;-73
2022/11/12 05:37:04;;;;;;;31.02;27.77;;;4.90;99.90;;;;;;5148117;27;19927;-73
2022/11/12 05:39:30;;;;;;;47.15;37.17;;;5.00;99.90;;;;;;5125513;27;20039;-73
2022/11/12 05:41:56;;;;;;;31.67;28.58;;;5.00;99.90;;;;;;5124654;27;20046;-74
2022/11/12 05:44:22;;;;;;;30.10;26.98;;;5.00;99.90;;;;;;5106221;27;20383;-73
2022/11/12 05:46:49;;;;;;;27.15;24.45;;;5.10;99.90;;;;;;5092990;28;20036;-80
2022/11/12 05:49:17;;;;;;;29.83;26.73;;;5.00;99.90;;;;;;5095963;28;20039;-81
2022/11/12 05:51:44;;;;;;;28.20;25.35;;;5.00;99.90;;;;;;5091056;27;20458;-81
2022/11/12 05:54:10;;;;;;;36.88;27.65;;;5.00;99.90;;;;;;5095120;28;20050;-80
2022/11/12 05:56:36;;;;;;;23.00;20.80;;;5.00;99.90;;;;;;5106248;27;20047;-79
2022/11/12 05:59:05;;;;;;;26.10;23.52;;;5.00;99.90;;;;;;5100277;28;20097;-79
2022/11/12 06:01:31;;;;;;;29.65;25.13;;;4.90;99.90;;;;;;5097807;27;20202;-80
2022/11/12 06:03:57;;;;;;;21.02;18.95;;;4.90;99.90;;;;;;5109610;27;20047;-79
2022/11/12 06:06:23;;;;;;;22.55;20.35;;;4.80;99.90;;;;;;5102182;27;20058;-81
2022/11/12 06:08:49;;;;;;;20.23;17.98;;;4.80;99.90;;;;;;5114437;27;20050;-79
2022/11/12 06:11:15;;;;;;;22.75;20.58;;;4.80;99.90;;;;;;5127893;27;20036;-79
2022/11/12 06:13:41;;;;;;;22.45;20.23;;;4.80;99.90;;;;;;5136211;27;20046;-79
2022/11/12 06:16:08;;;;;;;22.98;20.70;;;4.80;99.90;;;;;;5091207;27;20040;-79
2022/11/12 06:18:33;;;;;;;26.80;21.02;;;4.90;99.90;;;;;;5109690;27;20116;-79
2022/11/12 06:21:21;;;;;;;19.65;17.75;;;4.90;99.90;;;;;;5107178;27;20043;-80
2022/11/12 06:24:01;;;;;;;22.92;20.63;;;4.90;99.90;;;;;;5103554;27;20350;-80
2022/11/12 06:26:31;;;;;;;26.00;23.42;;;4.90;99.90;;;;;;5099527;28;20051;-80
2022/11/12 06:28:57;;;;;;;36.10;29.02;;;4.90;99.90;;;;;;5115759;27;20082;-80
2022/11/12 06:31:23;;;;;;;24.67;22.15;;;4.90;99.90;;;;;;5101959;28;20075;-80
2022/11/12 06:33:49;;;;;;;28.27;25.38;;;5.00;99.90;;;;;;5106224;27;20058;-80
2022/11/12 06:36:17;;;;;;;33.72;30.23;;;5.10;99.90;;;;;;5125171;27;20043;-79
2022/11/12 06:38:44;;;;;;;35.80;31.08;;;5.20;99.90;;;;;;5111393;27;20545;-79
2022/11/12 06:41:11;;;;;;;34.30;30.70;;;5.20;99.90;;;;;;5109248;27;20497;-79
2022/11/12 06:43:37;;;;;;;40.85;34.08;;;5.40;99.90;;;;;;5123217;27;20047;-79
2022/11/12 06:46:07;;;;;;;37.95;33.90;;;5.40;99.90;;;;;;5123636;27;20050;-79
2022/11/12 06:48:35;;;;;;;32.13;28.87;;;5.50;99.90;;;;;;5123366;27;20130;-79
2022/11/12 06:51:06;;;;;;;28.95;26.10;;;5.50;99.90;;;;;;5107043;27;20369;-81
2022/11/12 06:53:32;;;;;;;39.75;34.70;;;5.50;99.90;;;;;;5099595;27;20064;-82
2022/11/12 06:56:03;;;;;;;33.25;29.80;;;5.60;99.90;;;;;;5100099;27;20393;-81
2022/11/12 06:58:32;;;;;;;30.17;27.27;;;5.60;99.90;;;;;;5108355;27;20631;-81
2022/11/12 07:01:03;;;;;;;33.45;29.83;;;5.60;99.90;;;;;;5098486;27;20064;-83
2022/11/12 07:03:29;;;;;;;33.42;29.88;;;5.70;99.90;;;;;;5121979;27;20043;-81
2022/11/12 07:05:55;;;;;;;30.75;27.60;;;5.70;99.90;;;;;;5132852;27;20115;-81
2022/11/12 07:08:21;;;;;;;30.48;27.20;;;5.80;99.90;;;;;;5144519;27;20058;-79
2022/11/12 07:10:47;;;;;;;36.85;32.67;;;5.80;99.90;;;;;;5112837;27;20513;-78
2022/11/12 07:13:13;;;;;;;30.88;27.52;;;5.80;99.90;;;;;;5140802;27;20516;-80
2022/11/12 07:15:38;;;;;;;34.08;30.42;;;5.80;99.90;;;;;;5101360;27;20401;-81
2022/11/12 07:18:04;;;;;;;33.63;27.85;;;5.90;99.90;;;;;;5116567;27;20053;-81
2022/11/12 07:20:30;;;;;;;29.42;26.27;;;5.80;99.90;;;;;;5094668;28;20062;-81
2022/11/12 07:23:00;;;;;;;34.55;30.90;;;5.90;99.90;;;;;;5117609;27;20058;-81
2022/11/12 07:25:26;;;;;;;27.77;24.80;;;5.90;99.90;;;;;;5116788;27;20458;-81
2022/11/12 07:27:52;;;;;;;30.27;27.10;;;5.90;99.90;;;;;;5118488;27;20089;-81
2022/11/12 07:30:18;;;;;;;31.00;27.48;;;6.00;99.90;;;;;;5085902;27;20046;-81
2022/11/12 07:32:43;;;;;;;41.72;31.67;;;6.00;99.90;;;;;;5115928;27;20044;-81
2022/11/12 07:35:09;;;;;;;47.53;33.05;;;6.00;99.90;;;;;;5100816;28;20498;-81
2022/11/12 07:37:35;;;;;;;52.92;36.03;;;6.00;99.90;;;;;;5097583;28;20051;-81
2022/11/12 07:40:02;;;;;;;56.70;37.22;;;6.00;99.90;;;;;;5128639;27;20070;-81
2022/11/12 07:42:34;;;;;;;52.42;32.55;;;6.10;99.90;;;;;;5116553;27;20047;-81
2022/11/12 07:45:00;;;;;;;64.45;36.65;;;6.10;99.90;;;;;;5119028;27;20144;-73
2022/11/12 07:47:26;;;;;;;70.75;36.78;;;6.20;99.90;;;;;;5103935;27;20050;-73
2022/11/12 07:49:52;;;;;;;80.57;41.83;;;6.20;99.90;;;;;;5121731;27;20493;-73
2022/11/12 07:52:18;;;;;;;95.15;43.55;;;6.20;99.90;;;;;;5120691;27;20032;-73
2022/11/12 07:54:44;;;;;;;72.57;38.72;;;6.20;99.90;;;;;;5121179;27;20051;-73
2022/11/12 07:57:10;;;;;;;91.45;44.17;;;6.30;99.90;;;;;;5118034;27;20088;-73
2022/11/12 07:59:35;;;;;;;226.77;74.57;;;6.30;99.90;;;;;;5122105;27;20090;-73
2022/11/12 08:02:01;;;;;;;193.60;63.95;;;6.30;99.90;;;;;;5117424;27;20034;-80
2022/11/12 08:04:27;;;;;;;103.22;49.00;;;6.30;99.90;;;;;;5121647;27;20189;-80
2022/11/12 08:06:53;;;;;;;120.97;49.80;;;6.30;99.90;;;;;;5146790;27;20039;-81
2022/11/12 08:09:19;;;;;;;167.05;56.70;;;6.40;99.90;;;;;;5104296;27;20954;-81
2022/11/12 08:11:44;;;;;;;113.60;51.72;;;6.40;99.90;;;;;;5121068;27;20042;-81
2022/11/12 08:14:10;;;;;;;145.00;51.90;;;6.50;99.90;;;;;;5122773;27;20051;-81
2022/11/12 08:16:36;;;;;;;113.95;55.58;;;6.50;99.90;;;;;;5117239;27;20398;-79
2022/11/12 08:19:02;;;;;;;96.68;43.50;;;6.40;99.90;;;;;;5119049;27;20100;-79
2022/11/12 08:21:28;;;;;;;120.35;47.90;;;6.50;99.90;;;;;;5118163;27;20046;-73
2022/11/12 08:23:53;;;;;;;204.35;59.08;;;6.50;99.90;;;;;;5119965;27;20028;-72
2022/11/12 08:26:20;;;;;;;128.25;51.15;;;6.50;99.90;;;;;;5119024;27;20047;-72
2022/11/12 08:28:47;;;;;;;129.82;55.08;;;6.60;99.90;;;;;;5119719;27;20127;-73
2022/11/12 08:31:19;;;;;;;132.95;57.92;;;6.60;99.90;;;;;;5118564;27;20561;-72
2022/11/12 08:33:45;;;;;;;106.57;52.65;;;6.60;99.90;;;;;;5119899;27;20031;-72
2022/11/12 08:36:13;;;;;;;80.50;47.67;;;6.70;99.90;;;;;;5101374;27;20049;-72
2022/11/12 08:38:40;;;;;;;42.58;35.67;;;6.70;99.90;;;;;;5119379;27;20043;-72
2022/11/12 08:41:08;;;;;;;46.05;38.13;;;6.70;99.90;;;;;;5105312;27;20450;-80
2022/11/12 08:43:37;;;;;;;39.55;35.25;;;6.70;99.90;;;;;;5119073;27;20046;-79
2022/11/12 08:46:04;;;;;;;41.42;34.45;;;6.70;99.90;;;;;;5118538;27;20092;-80
2022/11/12 08:48:31;;;;;;;41.80;36.28;;;6.70;99.90;;;;;;5118368;27;20537;-79
2022/11/12 08:50:57;;;;;;;41.83;35.88;;;6.70;99.90;;;;;;5145399;27;20727;-80
2022/11/12 08:53:24;;;;;;;36.47;32.78;;;6.80;99.90;;;;;;5143231;27;20894;-80
2022/11/12 08:55:57;;;;;;;38.83;33.75;;;6.80;99.90;;;;;;5115245;27;20047;-80
2022/11/12 08:58:24;;;;;;;34.22;30.63;;;6.90;99.90;;;;;;5116965;27;20296;-80
2022/11/12 09:00:50;;;;;;;32.00;28.65;;;6.90;99.90;;;;;;5099157;27;20059;-80
2022/11/12 09:03:22;;;;;;;33.30;29.90;;;6.90;99.90;;;;;;5120451;27;20159;-79
2022/11/12 09:05:49;;;;;;;31.92;28.67;;;7.00;99.90;;;;;;5119446;27;20050;-79
2022/11/12 09:08:21;;;;;;;30.05;27.05;;;7.10;99.90;;;;;;5120178;27;20127;-80
2022/11/12 09:10:47;;;;;;;31.85;28.65;;;7.10;99.90;;;;;;5118928;27;20104;-80
2022/11/12 09:13:13;;;;;;;32.60;29.40;;;7.20;99.90;;;;;;5118781;27;20668;-80
2022/11/12 09:15:40;;;;;;;33.25;29.95;;;7.20;99.90;;;;;;5118136;27;20062;-80
2022/11/12 09:18:10;;;;;;;30.23;27.25;;;7.20;99.90;;;;;;5115557;27;20065;-80
2022/11/12 09:20:36;;;;;;;;;;;7.20;99.90;;;;;;5099266;27;20695;-80
2022/11/12 09:23:07;;;;;;;29.58;26.77;;;7.20;99.90;;;;;;5121786;27;19926;-80
2022/11/12 09:25:33;;;;;;;27.85;25.15;;;7.20;99.90;;;;;;5145025;27;20220;-80
2022/11/12 09:28:17;;;;;;;28.15;23.95;;;7.20;99.90;;;;;;5084587;27;20053;-80
2022/11/12 09:30:48;;;;;;;28.58;25.63;;;7.30;99.90;;;;;;5116280;27;20131;-80
2022/11/12 09:33:16;;;;;;;29.23;26.52;;;7.30;99.90;;;;;;5119016;27;20069;-81
2022/11/12 09:35:42;;;;;;;30.67;27.55;;;7.40;99.90;;;;;;5099112;27;20076;-80
2022/11/12 09:38:08;;;;;;;31.80;28.67;;;7.40;99.90;;;;;;5099914;27;20128;-80
2022/11/12 09:41:12;;;;;;;29.50;26.80;;;7.40;99.90;;;;;;5116457;27;20130;-80
2022/11/12 09:44:02;;;;;;;26.85;24.23;;;7.50;99.90;;;;;;5116477;27;20369;-80
2022/11/12 09:46:44;;;;;;;24.15;21.65;;;7.60;99.90;;;;;;5103020;27;20539;-80
2022/11/12 09:49:22;;;;;;;29.10;26.15;;;7.60;99.90;;;;;;5111261;27;20150;-73
2022/11/12 09:51:55;;;;;;;23.33;21.02;;;7.60;99.90;;;;;;5116693;27;20039;-73
2022/11/12 09:54:27;;;;;;;23.27;20.98;;;7.60;99.90;;;;;;5127107;27;20065;-73
2022/11/12 09:56:53;;;;;;;24.33;22.10;;;7.70;99.90;;;;;;5099011;27;20043;-73
2022/11/12 09:59:21;;;;;;;24.83;22.48;;;7.80;99.90;;;;;;5117506;27;20518;-73
2022/11/12 10:02:24;;;;;;;24.63;21.95;;;7.80;99.90;;;;;;5125259;27;20078;-73
2022/11/12 10:05:09;;;;;;;22.92;20.63;;;7.80;99.90;;;;;;5116170;27;20126;-73
2022/11/12 10:08:20;;;;;;;24.13;21.83;;;7.80;99.90;;;;;;5115876;27;20058;-73
2022/11/12 10:10:48;;;;;;;25.30;22.77;;;7.90;99.90;;;;;;5115525;27;20059;-73
2022/11/12 10:13:23;;;;;;;23.52;21.33;;;8.00;99.90;;;;;;5099368;27;20048;-73
2022/11/12 10:18:51;;;;;;;23.65;21.40;;;8.10;99.90;;;;;;5117634;27;20706;-73
2022/11/12 10:21:49;;;;;;;23.67;21.45;;;8.20;99.90;;;;;;5125322;27;20502;-73
2022/11/12 10:24:15;;;;;;;22.48;20.27;;;8.30;99.90;;;;;;5094263;27;20051;-73
2022/11/12 10:26:40;;;;;;;22.95;20.63;;;8.30;99.90;;;;;;5098028;27;20059;-73
2022/11/12 10:29:35;;;;;;;21.85;19.83;;;8.40;99.90;;;;;;5098999;27;20070;-72
2022/11/12 10:32:02;;;;;;;20.83;18.92;;;8.40;99.90;;;;;;5119709;27;20533;-74
2022/11/12 10:34:31;;;;;;;20.67;18.65;;;8.50;99.90;;;;;;5109867;27;20047;-72
2022/11/12 10:37:10;;;;;;;22.30;19.70;;;8.60;99.90;;;;;;5099156;27;20454;-72
2022/11/12 10:39:39;;;;;;;18.67;16.98;;;8.70;99.90;;;;;;5110255;27;20043;-73
2022/11/12 10:42:11;;;;;;;21.38;19.33;;;8.70;99.90;;;;;;5094894;27;20039;-73
2022/11/12 10:44:39;;;;;;;20.80;18.88;;;8.80;99.90;;;;;;5096085;27;20482;-73
2022/11/12 10:47:26;;;;;;;19.33;17.30;;;8.80;99.90;;;;;;5116175;27;20517;-73
2022/11/12 10:50:26;;;;;;;21.70;19.75;;;8.90;99.90;;;;;;5117873;27;20139;-73
2022/11/12 10:53:01;;;;;;;23.20;20.88;;;8.90;99.90;;;;;;5116675;27;20294;-75
2022/11/12 10:55:29;;;;;;;21.17;19.17;;;9.00;99.90;;;;;;5114155;27;20538;-73
2022/11/12 10:58:10;;;;;;;21.90;19.60;;;9.00;99.90;;;;;;5116892;27;20051;-73
2022/11/12 11:00:50;;;;;;;21.95;19.80;;;9.10;99.90;;;;;;5099429;27;20049;-73
2022/11/12 11:03:23;;;;;;;20.48;18.38;;;9.20;99.90;;;;;;5117177;27;20096;-73
2022/11/12 11:05:57;;;;;;;21.00;18.80;;;9.30;99.90;;;;;;5114333;27;20360;-74
2022/11/12 11:08:35;;;;;;;21.20;19.10;;;9.40;99.90;;;;;;5113735;27;20118;-74
2022/11/12 11:11:24;;;;;;;19.02;17.13;;;9.40;99.90;;;;;;5111851;27;20126;-74
2022/11/12 11:13:52;;;;;;;19.42;17.42;;;9.50;99.90;;;;;;5115096;27;20493;-74
2022/11/12 11:16:26;;;;;;;20.17;18.17;;;9.60;99.90;;;;;;5111832;27;20035;-74
2022/11/12 11:19:04;;;;;;;20.50;18.40;;;9.60;99.90;;;;;;5112281;27;20531;-74
2022/11/12 11:21:48;;;;;;;19.88;17.88;;;9.70;99.90;;;;;;5115792;27;20043;-74
2022/11/12 11:24:26;;;;;;;20.38;18.27;;;9.80;99.90;;;;;;5116469;27;20051;-74
2022/11/12 11:27:25;;;;;;;19.10;17.30;;;9.90;99.90;;;;;;5112909;27;20210;-74
2022/11/12 11:30:15;;;;;;;20.08;18.17;;;9.90;99.90;;;;;;5087635;27;20051;-72
2022/11/12 11:33:09;;;;;;;17.85;16.02;;;10.00;99.90;;;;;;5113329;27;20062;-73
2022/11/12 11:35:46;;;;;;;17.85;16.15;;;10.10;99.90;;;;;;5097762;28;20523;-74
2022/11/12 11:38:42;;;;;;;18.02;16.10;;;10.10;99.90;;;;;;5096950;27;20054;-74
2022/11/12 11:41:10;;;;;;;17.45;15.60;;;10.20;99.90;;;;;;5100313;28;20050;-74
2022/11/12 11:43:52;;;;;;;20.48;18.30;;;10.20;99.90;;;;;;5119891;27;20046;-74
2022/11/12 11:46:56;;;;;;;18.23;16.25;;;10.30;99.90;;;;;;5113888;28;20045;-74
2022/11/12 11:49:46;;;;;;;19.77;17.88;;;10.50;99.90;;;;;;5106562;27;20060;-74
2022/11/12 11:52:33;;;;;;;19.20;15.88;;;10.50;99.90;;;;;;5113469;27;20047;-74
2022/11/12 11:55:14;;;;;;;16.17;14.50;;;10.50;99.90;;;;;;5135935;27;20031;-81
2022/11/12 11:58:10;;;;;;;18.33;16.52;;;10.60;99.90;;;;;;5112147;27;20076;-81
2022/11/12 12:01:04;;;;;;;17.98;16.17;;;10.70;99.90;;;;;;5115711;27;20162;-81
2022/11/12 12:04:03;;;;;;;18.40;16.48;;;10.80;99.90;;;;;;5094429;28;20047;-80
2022/11/12 12:06:46;;;;;;;17.48;15.68;;;10.80;99.90;;;;;;5089587;28;20510;-80
2022/11/12 12:09:33;;;;;;;16.20;14.60;;;10.90;99.90;;;;;;5141499;27;20081;-80
2022/11/12 12:12:17;;;;;;;17.05;15.50;;;11.00;99.90;;;;;;5118053;27;20051;-81
2022/11/12 12:15:06;;;;;;;18.08;16.20;;;11.10;99.90;;;;;;5112886;27;20036;-80
2022/11/12 12:17:35;;;;;;;17.38;15.88;;;11.10;99.90;;;;;;5109609;27;20146;-80
2022/11/12 12:20:04;;;;;;;16.15;14.55;;;11.20;99.90;;;;;;5091672;28;20043;-79
2022/11/12 12:22:52;;;;;;;15.75;14.27;;;11.10;99.90;;;;;;5117268;27;20047;-79
2022/11/12 12:25:37;;;;;;;14.93;13.50;;;11.20;99.90;;;;;;5105346;27;20051;-78
2022/11/12 12:28:23;;;;;;;16.75;15.15;;;11.20;99.90;;;;;;5099914;27;20055;-80
2022/11/12 12:30:56;;;;;;;17.23;15.55;;;11.20;99.90;;;;;;5116620;27;20070;-81
2022/11/12 12:33:42;;;;;;;16.50;14.77;;;11.20;99.90;;;;;;5099815;27;20456;-81
2022/11/12 12:36:30;;;;;;;16.60;15.10;;;11.30;99.90;;;;;;5120629;27;20051;-81
2022/11/12 12:39:08;;;;;;;16.42;14.93;;;11.30;99.90;;;;;;5119575;27;20067;-80
2022/11/12 12:41:42;;;;;;;16.65;14.98;;;11.30;99.90;;;;;;5124646;27;20036;-81
2022/11/12 12:44:09;;;;;;;15.80;14.32;;;11.30;99.90;;;;;;5104148;27;20039;-81
2022/11/12 12:46:55;;;;;;;16.33;14.82;;;11.30;99.90;;;;;;5120159;27;20046;-81
2022/11/12 12:49:31;;;;;;;18.02;16.33;;;11.40;99.90;;;;;;5114716;27;20138;-81
2022/11/12 12:51:58;;;;;;;17.35;15.52;;;11.40;99.90;;;;;;5112913;27;20388;-83
2022/11/12 12:54:33;;;;;;;16.85;15.25;;;11.40;99.90;;;;;;5086212;27;20561;-83
2022/11/12 12:56:59;;;;;;;16.90;15.23;;;11.50;99.90;;;;;;5096986;27;20067;-83
2022/11/12 12:59:25;;;;;;;17.60;15.80;;;11.40;99.90;;;;;;5117194;27;20180;-83
2022/11/12 13:02:00;;;;;;;16.55;14.95;;;11.50;99.90;;;;;;5117909;27;20058;-83
2022/11/12 13:04:51;;;;;;;16.40;14.77;;;11.50;99.90;;;;;;5119597;27;20086;-83
2022/11/12 13:07:23;;;;;;;15.80;14.20;;;11.60;99.90;;;;;;5118014;27;20047;-83
2022/11/12 13:09:48;;;;;;;15.13;13.50;;;11.50;99.90;;;;;;5116665;27;20047;-83
2022/11/12 13:14:42;;;;;;;16.48;14.82;;;11.60;99.90;;;;;;5118388;27;20051;-83
2022/11/12 13:17:09;;;;;;;16.30;14.80;;;11.60;99.90;;;;;;5103077;27;20096;-83
2022/11/12 13:19:46;;;;;;;17.45;15.73;;;11.60;99.90;;;;;;5101671;27;20614;-83
2022/11/12 13:22:17;;;;;;;16.60;14.80;;;11.60;99.90;;;;;;5117218;27;20058;-83